KAVP/AVP METAR and TAF weather

Enter ICAO airport designator
Station Type Date Time Source
KAVP METAR 2020/04/09 18:54 UTC NOAA

KAVP 091854Z AUTO 31018G26KT 10SM BKN036 BKN044 BKN050 08/01 A2933 RMK AO2 PK WND 31026/1848 SLP932 T00830006


Station Type Date Time Source
KAVP Decoded METAR 2020/04/09 18:54 UTC NOAA

WILKES-BARRE/SCRANTON INTERNATIONAL , PA, United States (KAVP) 41-20N 75-44W 291M
Apr 09, 2020 - 02:54 PM EDT / 2020.04.09 1854 UTC
Wind: from the NW (310 degrees) at 21 MPH (18 KT) gusting to 30 MPH (26 KT):0
Visibility: 10 mile(s):0
Sky conditions: mostly cloudy
Temperature: 46.9 F (8.3 C)
Dew Point: 33.1 F (0.6 C)
Relative Humidity: 58%
Pressure (altimeter): 29.33 in. Hg (993 hPa)
ob: KAVP 091854Z AUTO 31018G26KT 10SM BKN036 BKN044 BKN050 08/01 A2933 RMK AO2 PK WND 31026/1848 SLP932 T00830006
cycle: 19

Station Type Date Time Source
KAVP TAF 2020/04/09 18:36 UTC NOAA

TAF KAVP 091735Z 0918/1018 30017G27KT P6SM SCT020 BKN030
FM092000 30019G28KT P6SM SCT040
FM100400 28012G20KT P6SM BKN025
FM101000 26015G28KT P6SM BKN040

Example: see airport list